createdAt,value
2022-09-13T00:02:18.063Z,2.60
2022-09-13T00:04:44.930Z,3.00
2022-09-13T00:07:11.643Z,2.73
2022-09-13T00:09:38.463Z,5.67
2022-09-13T00:12:05.398Z,4.23
2022-09-13T00:14:32.174Z,3.93
2022-09-13T00:16:59.015Z,3.27
2022-09-13T00:19:26.072Z,3.93
2022-09-13T00:21:52.846Z,4.67
2022-09-13T00:24:19.614Z,3.30
2022-09-13T00:26:46.327Z,4.20
2022-09-13T00:29:13.120Z,4.60
2022-09-13T00:31:40.273Z,2.50
2022-09-13T00:34:07.076Z,2.50
2022-09-13T00:36:34.156Z,2.30
2022-09-13T00:39:01.480Z,2.40
2022-09-13T00:41:28.583Z,2.30
2022-09-13T00:44:01.793Z,3.57
2022-09-13T00:46:37.625Z,2.27
2022-09-13T00:49:21.168Z,2.07
2022-09-13T00:51:58.530Z,2.90
2022-09-13T00:54:31.338Z,2.07
2022-09-13T00:57:02.679Z,3.30
2022-09-13T00:59:37.346Z,2.37
2022-09-13T01:02:05.877Z,2.17
2022-09-13T01:04:39.336Z,2.07
2022-09-13T01:07:13.183Z,2.23
2022-09-13T01:09:45.963Z,2.43
2022-09-13T01:12:53.464Z,4.17
2022-09-13T01:15:21.222Z,2.00
2022-09-13T01:17:50.539Z,2.40
2022-09-13T01:20:17.380Z,4.60
2022-09-13T01:23:20.333Z,4.27
2022-09-13T01:26:07.892Z,4.83
2022-09-13T01:29:33.842Z,2.47
2022-09-13T01:32:24.956Z,2.50
2022-09-13T01:35:46.046Z,2.40
2022-09-13T01:38:25.157Z,2.30
2022-09-13T01:41:33.643Z,2.50
2022-09-13T01:44:28.454Z,2.63
2022-09-13T01:47:34.409Z,2.90
2022-09-13T01:50:22.892Z,4.53
2022-09-13T01:52:58.878Z,3.73
2022-09-13T01:55:41.693Z,8.20
2022-09-13T01:58:39.461Z,2.50
2022-09-13T02:01:23.231Z,3.17
2022-09-13T02:03:59.795Z,5.53
2022-09-13T02:06:40.461Z,3.30
2022-09-13T02:09:21.548Z,4.90
2022-09-13T02:11:58.083Z,2.90
2022-09-13T02:14:37.440Z,4.53
2022-09-13T02:17:09.791Z,3.43
2022-09-13T02:19:57.636Z,4.43
2022-09-13T02:22:33.059Z,3.93
2022-09-13T02:25:15.038Z,2.80
2022-09-13T02:27:48.403Z,4.93
2022-09-13T02:30:15.918Z,4.17
2022-09-13T02:32:57.482Z,3.93
2022-09-13T02:35:35.582Z,2.63
2022-09-13T02:38:15.246Z,2.13
2022-09-13T02:40:56.324Z,2.30
2022-09-13T02:43:33.462Z,3.00
2022-09-13T02:46:35.625Z,1.80
2022-09-13T02:49:46.845Z,2.13
2022-09-13T02:52:34.615Z,3.27
2022-09-13T02:55:25.987Z,2.30
2022-09-13T02:58:11.542Z,2.10
2022-09-13T03:00:39.073Z,2.33
2022-09-13T03:03:11.713Z,2.40
2022-09-13T03:05:38.518Z,2.70
2022-09-13T03:08:10.051Z,2.10
2022-09-13T03:11:20.679Z,3.43
2022-09-13T03:14:40.309Z,5.73
2022-09-13T03:17:15.455Z,5.53
2022-09-13T03:20:09.349Z,2.30
2022-09-13T03:22:57.014Z,2.43
2022-09-13T03:25:43.610Z,2.87
2022-09-13T03:28:44.503Z,7.37
2022-09-13T03:31:46.092Z,2.90
2022-09-13T03:34:21.954Z,3.00
2022-09-13T03:37:32.583Z,3.20
2022-09-13T03:40:10.729Z,3.03
2022-09-13T03:42:58.605Z,2.10
2022-09-13T03:45:31.527Z,4.23
2022-09-13T03:47:59.635Z,3.23
2022-09-13T03:50:27.509Z,3.40
2022-09-13T03:53:04.542Z,2.27
2022-09-13T03:55:34.873Z,4.13
2022-09-13T03:58:01.859Z,2.90
2022-09-13T04:00:29.488Z,3.30
2022-09-13T04:02:56.280Z,3.40
2022-09-13T04:05:23.065Z,4.50
2022-09-13T04:07:49.822Z,3.77
2022-09-13T04:10:16.655Z,2.53
2022-09-13T04:12:43.440Z,2.23
2022-09-13T04:15:10.282Z,2.40
2022-09-13T04:17:37.174Z,2.40
2022-09-13T04:20:05.517Z,2.33
2022-09-13T04:22:33.508Z,4.57
2022-09-13T04:25:02.536Z,3.77
2022-09-13T04:27:29.787Z,3.97
2022-09-13T04:29:56.563Z,4.90
2022-09-13T04:32:23.466Z,3.97
2022-09-13T04:34:50.189Z,3.27
2022-09-13T04:37:17.000Z,4.77
2022-09-13T04:39:43.920Z,3.30
2022-09-13T04:42:11.403Z,6.40
2022-09-13T04:44:38.290Z,5.73
2022-09-13T04:47:06.310Z,3.70
2022-09-13T04:49:33.820Z,3.13
2022-09-13T04:52:06.419Z,3.03
2022-09-13T04:54:33.287Z,7.50
2022-09-13T04:57:00.135Z,3.63
2022-09-13T04:59:27.778Z,3.63
2022-09-13T05:01:54.608Z,3.50
2022-09-13T05:04:21.367Z,3.03
2022-09-13T05:06:50.994Z,5.73
2022-09-13T05:09:17.999Z,4.20
2022-09-13T05:11:44.988Z,4.63
2022-09-13T05:14:12.813Z,2.93
2022-09-13T05:16:39.958Z,7.20
2022-09-13T05:19:07.029Z,2.40
2022-09-13T05:21:33.980Z,2.93
2022-09-13T05:24:00.806Z,2.70
2022-09-13T05:26:31.173Z,3.10
2022-09-13T05:29:01.519Z,3.50
2022-09-13T05:31:36.518Z,3.53
2022-09-13T05:34:10.845Z,5.20
2022-09-13T05:36:38.998Z,7.60
2022-09-13T05:41:54.953Z,2.70
2022-09-13T05:44:21.833Z,1.90
2022-09-13T05:46:51.630Z,3.67
2022-09-13T05:49:18.398Z,3.70
2022-09-13T05:51:45.770Z,5.80
2022-09-13T05:54:13.626Z,2.10
2022-09-13T05:56:40.745Z,5.87
2022-09-13T05:59:08.910Z,2.13
2022-09-13T06:01:35.854Z,3.27
2022-09-13T06:04:02.770Z,1.80
2022-09-13T06:06:29.523Z,3.20
2022-09-13T06:08:57.645Z,5.23
2022-09-13T06:11:26.575Z,6.13
2022-09-13T06:13:53.721Z,9.60
2022-09-13T06:16:21.136Z,5.23
2022-09-13T06:18:48.860Z,1.93
2022-09-13T06:21:20.330Z,2.20
2022-09-13T06:23:53.330Z,4.22
2022-09-13T06:26:24.183Z,1.97
2022-09-13T06:28:54.516Z,2.88
2022-09-13T06:31:25.790Z,3.43
2022-09-13T06:33:59.692Z,3.53
2022-09-13T06:36:27.433Z,1.42
2022-09-13T06:38:54.205Z,2.20
2022-09-13T06:41:24.054Z,2.20
2022-09-13T06:43:57.385Z,1.83
2022-09-13T06:46:26.271Z,3.53
2022-09-13T06:48:53.377Z,2.30
2022-09-13T06:51:23.519Z,2.92
2022-09-13T06:53:52.198Z,4.65
2022-09-13T06:56:22.837Z,3.15
2022-09-13T06:58:52.611Z,6.30
2022-09-13T07:01:29.614Z,5.88
2022-09-13T07:04:03.643Z,3.33
2022-09-13T07:06:34.922Z,4.20
2022-09-13T07:09:05.151Z,3.17
2022-09-13T07:11:38.696Z,2.65
2022-09-13T07:14:09.496Z,3.83
2022-09-13T07:16:38.321Z,2.40
2022-09-13T07:19:12.457Z,2.75
2022-09-13T07:21:39.307Z,1.60
2022-09-13T07:24:06.720Z,2.33
2022-09-13T07:26:34.329Z,2.60
2022-09-13T07:29:05.154Z,2.63
2022-09-13T07:31:41.730Z,1.88
2022-09-13T07:34:14.795Z,1.83
2022-09-13T07:36:42.699Z,4.20
2022-09-13T07:39:13.737Z,3.60
2022-09-13T07:41:43.223Z,2.88
2022-09-13T07:44:11.742Z,1.95
2022-09-13T07:46:43.707Z,3.90
2022-09-13T07:49:18.268Z,4.03
2022-09-13T07:51:46.119Z,2.50
2022-09-13T07:54:17.599Z,2.25
2022-09-13T07:56:45.438Z,5.78
2022-09-13T07:59:16.079Z,2.10
2022-09-13T08:01:47.268Z,3.08
2022-09-13T08:04:18.810Z,2.15
2022-09-13T08:06:46.979Z,3.83
2022-09-13T08:09:14.498Z,2.20
2022-09-13T08:11:48.530Z,2.30
2022-09-13T08:14:18.813Z,4.55
2022-09-13T08:16:46.313Z,3.03
2022-09-13T08:19:16.732Z,5.10
2022-09-13T08:21:44.655Z,1.80
2022-09-13T08:24:23.445Z,2.55
2022-09-13T08:26:52.116Z,3.97
2022-09-13T08:29:19.321Z,2.28
2022-09-13T08:31:46.064Z,7.72
2022-09-13T08:34:15.869Z,2.33
2022-09-13T08:36:43.485Z,4.13
2022-09-13T08:39:17.826Z,6.07
2022-09-13T08:42:09.010Z,2.58
2022-09-13T08:44:56.226Z,3.83
2022-09-13T08:47:41.176Z,3.75
2022-09-13T08:50:19.608Z,2.33
2022-09-13T08:53:03.799Z,3.15
2022-09-13T08:55:57.954Z,2.58
2022-09-13T08:58:39.322Z,4.93
2022-09-13T09:01:13.212Z,3.65
2022-09-13T09:04:06.078Z,2.65
2022-09-13T09:06:38.041Z,3.90
2022-09-13T09:09:10.711Z,6.72
2022-09-13T09:12:17.213Z,4.75
2022-09-13T09:15:05.263Z,6.65
2022-09-13T09:18:10.640Z,4.72
2022-09-13T09:20:43.746Z,4.30
2022-09-13T09:23:20.502Z,2.05
2022-09-13T09:25:55.015Z,4.53
2022-09-13T09:28:22.045Z,3.25
2022-09-13T09:31:04.272Z,2.78
2022-09-13T09:33:59.805Z,2.50
2022-09-13T09:36:37.690Z,2.67
2022-09-13T09:39:06.442Z,4.22
2022-09-13T09:41:36.907Z,2.97
2022-09-13T09:44:22.849Z,2.45
2022-09-13T09:46:59.517Z,2.70
2022-09-13T09:49:46.532Z,2.05
2022-09-13T09:52:19.009Z,3.00
2022-09-13T09:54:48.343Z,2.17
2022-09-13T09:57:15.237Z,3.22
2022-09-13T09:59:41.956Z,2.38
2022-09-13T10:02:22.172Z,1.83
2022-09-13T10:05:01.099Z,2.78
2022-09-13T10:07:34.499Z,3.55
2022-09-13T10:10:20.465Z,4.88
2022-09-13T10:12:53.586Z,2.05
2022-09-13T10:15:33.600Z,6.85
2022-09-13T10:18:42.372Z,5.15
2022-09-13T10:21:07.324Z,2.90
2022-09-13T10:23:37.026Z,2.22
2022-09-13T10:26:16.549Z,2.88
2022-09-13T10:28:52.186Z,4.78
2022-09-13T10:31:21.410Z,3.75
2022-09-13T10:33:51.349Z,6.03
2022-09-13T10:36:52.596Z,3.03
2022-09-13T10:39:23.760Z,3.92
2022-09-13T10:42:05.307Z,2.55
2022-09-13T10:44:56.673Z,2.78
2022-09-13T10:47:35.624Z,3.80
2022-09-13T10:50:31.480Z,3.38
2022-09-13T10:53:00.089Z,2.72
2022-09-13T10:55:40.721Z,4.53
2022-09-13T10:58:08.050Z,4.13
2022-09-13T11:01:14.209Z,4.25
2022-09-13T11:04:23.830Z,4.95
2022-09-13T11:07:03.874Z,3.08
2022-09-13T11:09:52.878Z,5.50
2022-09-13T11:12:58.649Z,4.78
2022-09-13T11:16:06.915Z,5.10
2022-09-13T11:18:55.521Z,3.97
2022-09-13T11:21:32.467Z,4.45
2022-09-13T11:24:27.301Z,3.20
2022-09-13T11:27:10.499Z,5.55
2022-09-13T11:29:58.739Z,4.30
2022-09-13T11:33:03.703Z,3.65
2022-09-13T11:36:07.570Z,3.17
2022-09-13T11:39:09.771Z,3.22
2022-09-13T11:42:11.749Z,2.95
2022-09-13T11:45:03.266Z,6.22
2022-09-13T11:47:54.577Z,3.80
2022-09-13T11:50:47.178Z,3.22
2022-09-13T11:53:44.211Z,3.53
2022-09-13T11:56:40.237Z,2.78
2022-09-13T11:59:45.051Z,3.08
2022-09-13T12:02:40.610Z,3.03
2022-09-13T12:05:33.591Z,3.15
2022-09-13T12:08:10.075Z,2.80
2022-09-13T12:11:02.501Z,3.00
2022-09-13T12:13:52.520Z,2.85
2022-09-13T12:16:50.245Z,3.50
2022-09-13T12:19:46.464Z,5.13
2022-09-13T12:22:14.262Z,2.85
2022-09-13T12:24:50.486Z,3.30
2022-09-13T12:27:40.889Z,4.18
2022-09-13T12:30:26.082Z,3.67
2022-09-13T12:32:58.653Z,4.05
2022-09-13T12:35:48.099Z,4.28
2022-09-13T12:38:37.365Z,3.70
2022-09-13T12:41:41.738Z,2.95
2022-09-13T12:44:45.673Z,3.20
2022-09-13T12:47:24.084Z,2.63
2022-09-13T12:50:43.346Z,3.70
2022-09-13T12:53:59.450Z,5.40
2022-09-13T12:56:46.779Z,6.30
2022-09-13T12:59:36.750Z,3.58
2022-09-13T13:02:34.881Z,2.90
2022-09-13T13:05:35.970Z,3.10
2022-09-13T13:08:17.806Z,2.72
2022-09-13T13:10:44.894Z,4.10
2022-09-13T13:13:25.058Z,2.75
2022-09-13T13:15:51.886Z,4.45
2022-09-13T13:18:37.044Z,2.53
2022-09-13T13:21:23.022Z,2.47
2022-09-13T13:24:15.597Z,2.60
2022-09-13T13:26:56.568Z,6.55
2022-09-13T13:29:32.562Z,3.90
2022-09-13T13:32:08.168Z,2.90
2022-09-13T13:34:46.952Z,2.72
2022-09-13T13:37:18.581Z,2.63
2022-09-13T13:39:48.273Z,5.40
2022-09-13T13:42:35.305Z,4.32
2022-09-13T13:45:02.069Z,17.05
2022-09-13T13:47:28.738Z,4.18
2022-09-13T13:50:19.149Z,2.80
2022-09-13T13:52:56.625Z,3.22
2022-09-13T13:55:30.146Z,2.40
2022-09-13T13:58:30.366Z,3.13
2022-09-13T14:01:01.393Z,4.75
2022-09-13T14:04:05.916Z,3.08
2022-09-13T14:07:06.014Z,2.40
2022-09-13T14:10:15.251Z,3.47
2022-09-13T14:13:45.760Z,4.35
2022-09-13T14:16:56.545Z,4.63
2022-09-13T14:19:49.227Z,3.38
2022-09-13T14:22:25.194Z,3.28
2022-09-13T14:25:24.505Z,4.22
2022-09-13T14:27:58.298Z,2.25
2022-09-13T14:30:34.859Z,5.93
2022-09-13T14:33:01.852Z,3.95
2022-09-13T14:35:40.962Z,2.35
2022-09-13T14:38:21.227Z,2.60
2022-09-13T14:40:57.742Z,6.07
2022-09-13T14:43:28.646Z,3.33
2022-09-13T14:46:15.288Z,3.70
2022-09-13T14:49:26.305Z,7.43
2022-09-13T14:52:04.414Z,2.65
2022-09-13T14:54:48.542Z,8.32
2022-09-13T14:57:34.018Z,5.13
2022-09-13T15:00:18.573Z,2.55
2022-09-13T15:03:10.857Z,8.48
2022-09-13T15:05:39.040Z,6.10
2022-09-13T15:08:33.589Z,3.85
2022-09-13T15:11:05.574Z,3.85
2022-09-13T15:13:34.554Z,6.22
2022-09-13T15:16:01.558Z,2.78
2022-09-13T15:18:36.606Z,5.25
2022-09-13T15:21:16.338Z,3.95
2022-09-13T15:23:53.446Z,4.03
2022-09-13T15:26:25.688Z,2.47
2022-09-13T15:28:55.260Z,4.45
2022-09-13T15:31:35.890Z,2.50
2022-09-13T15:34:23.640Z,3.70
2022-09-13T15:37:04.932Z,3.13
2022-09-13T15:39:51.599Z,2.85
2022-09-13T15:42:18.420Z,4.35
2022-09-13T15:44:45.325Z,3.28
2022-09-13T15:47:20.113Z,4.93
2022-09-13T15:49:52.078Z,4.80
2022-09-13T15:52:20.514Z,3.25
2022-09-13T15:54:51.280Z,3.10
2022-09-13T15:57:25.138Z,3.13
2022-09-13T15:59:55.634Z,3.10
2022-09-13T16:02:29.146Z,3.03
2022-09-13T16:04:56.490Z,3.63
2022-09-13T16:07:25.792Z,3.47
2022-09-13T16:09:53.570Z,3.42
2022-09-13T16:12:24.204Z,3.22
2022-09-13T16:14:53.286Z,4.18
2022-09-13T16:17:26.131Z,4.28
2022-09-13T16:19:54.412Z,3.45
2022-09-13T16:22:22.134Z,3.83
2022-09-13T16:24:49.023Z,7.22
2022-09-13T16:27:18.761Z,4.60
2022-09-13T16:29:46.915Z,5.13
2022-09-13T16:32:13.845Z,5.03
2022-09-13T16:34:40.591Z,6.20
2022-09-13T16:37:07.507Z,4.40
2022-09-13T16:39:34.276Z,6.55
2022-09-13T16:42:01.027Z,5.90
2022-09-13T16:44:27.818Z,5.68
2022-09-13T16:46:54.644Z,4.03
2022-09-13T16:49:21.401Z,5.00
2022-09-13T16:51:48.181Z,5.28
2022-09-13T16:54:14.984Z,4.93
2022-09-13T16:56:41.895Z,6.90
2022-09-13T16:59:08.655Z,5.18
2022-09-13T17:01:36.169Z,7.97
2022-09-13T17:04:03.692Z,7.53
2022-09-13T17:06:30.471Z,3.90
2022-09-13T17:09:03.166Z,3.42
2022-09-13T17:11:35.950Z,3.67
2022-09-13T17:14:06.489Z,6.15
2022-09-13T17:16:38.604Z,4.63
2022-09-13T17:19:13.219Z,6.95
2022-09-13T17:21:40.228Z,4.82
2022-09-13T17:24:11.386Z,5.25
2022-09-13T17:26:40.860Z,10.20
2022-09-13T17:29:07.679Z,6.35
2022-09-13T17:31:35.571Z,4.63
2022-09-13T17:34:02.340Z,4.22
2022-09-13T17:36:29.114Z,5.57
2022-09-13T17:38:57.469Z,4.13
2022-09-13T17:41:26.009Z,4.45
2022-09-13T17:43:54.316Z,7.13
2022-09-13T17:46:25.340Z,8.57
2022-09-13T17:48:54.710Z,7.40
2022-09-13T17:51:25.839Z,6.30
2022-09-13T17:54:00.339Z,14.07
2022-09-13T17:56:40.311Z,7.60
2022-09-13T17:59:15.527Z,8.90
2022-09-13T18:01:46.928Z,6.25
2022-09-13T18:04:15.877Z,9.27
2022-09-13T18:06:43.266Z,7.75
2022-09-13T18:09:12.532Z,6.68
2022-09-13T18:11:40.561Z,9.25
2022-09-13T18:14:12.400Z,10.55
2022-09-13T18:16:39.778Z,8.18
2022-09-13T18:19:07.259Z,6.88
2022-09-13T18:21:34.286Z,7.15
2022-09-13T18:24:01.658Z,5.07
2022-09-13T18:26:32.578Z,4.63
2022-09-13T18:29:04.132Z,8.00
2022-09-13T18:31:34.409Z,6.03
2022-09-13T18:34:06.990Z,4.88
2022-09-13T18:36:35.687Z,9.85
2022-09-13T18:39:06.246Z,10.48
2022-09-13T18:41:41.825Z,6.45
2022-09-13T18:44:10.950Z,5.43
2022-09-13T18:46:38.827Z,7.18
2022-09-13T18:49:07.060Z,6.43
2022-09-13T18:51:38.899Z,4.57
2022-09-13T18:54:10.875Z,5.70
2022-09-13T18:56:37.676Z,7.80
2022-09-13T18:59:09.519Z,5.83
2022-09-13T19:01:40.687Z,7.23
2022-09-13T19:04:13.715Z,6.33
2022-09-13T19:06:47.230Z,5.87
2022-09-13T19:09:14.874Z,9.83
2022-09-13T19:11:48.883Z,6.73
2022-09-13T19:14:28.494Z,4.70
2022-09-13T19:17:00.981Z,6.57
2022-09-13T19:19:27.893Z,7.93
2022-09-13T19:21:54.887Z,6.23
2022-09-13T19:24:22.015Z,4.60
2022-09-13T19:26:51.920Z,4.53
2022-09-13T19:29:22.748Z,5.50
2022-09-13T19:31:52.614Z,3.17
2022-09-13T19:34:22.097Z,3.83
2022-09-13T19:36:53.811Z,3.80
2022-09-13T19:39:20.806Z,4.43
2022-09-13T19:41:47.565Z,3.90
2022-09-13T19:44:14.827Z,4.30
2022-09-13T19:46:42.870Z,4.67
2022-09-13T19:49:14.482Z,4.70
2022-09-13T19:51:45.502Z,3.63
2022-09-13T19:54:17.992Z,5.20
2022-09-13T19:56:44.823Z,5.73
2022-09-13T19:59:15.616Z,5.17
2022-09-13T20:01:45.347Z,4.47
2022-09-13T20:04:19.171Z,5.50
2022-09-13T20:06:51.453Z,4.13
2022-09-13T20:09:20.525Z,9.80
2022-09-13T20:11:48.517Z,4.90
2022-09-13T20:14:18.792Z,2.93
2022-09-13T20:16:45.875Z,4.03
2022-09-13T20:22:08.419Z,4.57
2022-09-13T20:24:35.646Z,2.97
2022-09-13T20:27:02.596Z,3.37
2022-09-13T20:29:29.392Z,3.80
2022-09-13T20:31:56.112Z,4.13
2022-09-13T20:34:22.849Z,4.77
2022-09-13T20:36:49.638Z,7.83
2022-09-13T20:39:16.883Z,4.90
2022-09-13T20:41:44.234Z,4.23
2022-09-13T20:44:11.607Z,5.40
2022-09-13T20:46:40.258Z,6.47
2022-09-13T20:49:09.245Z,3.87
2022-09-13T20:51:37.407Z,2.83
2022-09-13T20:54:05.404Z,4.60
2022-09-13T20:56:34.126Z,3.10
2022-09-13T20:59:01.218Z,5.80
2022-09-13T21:01:31.460Z,2.77
2022-09-13T21:03:59.912Z,5.87
2022-09-13T21:06:29.584Z,5.40
2022-09-13T21:08:59.780Z,3.50
2022-09-13T21:11:35.899Z,4.37
2022-09-13T21:14:07.895Z,4.93
2022-09-13T21:16:39.691Z,5.67
2022-09-13T21:19:07.839Z,3.73
2022-09-13T21:21:38.612Z,5.00
2022-09-13T21:24:09.554Z,8.23
2022-09-13T21:26:41.911Z,5.87
2022-09-13T21:29:10.143Z,7.63
2022-09-13T21:31:37.734Z,6.20
2022-09-13T21:34:17.868Z,6.07
2022-09-13T21:36:46.494Z,5.30
2022-09-13T21:39:14.950Z,6.23
2022-09-13T21:41:42.946Z,8.27
2022-09-13T21:44:10.304Z,4.87
2022-09-13T21:46:39.220Z,6.67
2022-09-13T21:49:11.342Z,5.97
2022-09-13T21:51:40.965Z,7.73
2022-09-13T21:54:11.563Z,8.33
2022-09-13T21:56:42.047Z,5.20
2022-09-13T21:59:14.583Z,6.47
2022-09-13T22:01:46.148Z,10.67
2022-09-13T22:04:20.194Z,8.13
2022-09-13T22:06:52.065Z,8.00
2022-09-13T22:09:20.971Z,13.17
2022-09-13T22:11:49.590Z,7.00
2022-09-13T22:14:19.862Z,6.23
2022-09-13T22:16:46.783Z,8.17
2022-09-13T22:19:22.081Z,6.63
2022-09-13T22:21:53.477Z,6.60
2022-09-13T22:24:23.473Z,5.87
2022-09-13T22:26:52.915Z,6.30
2022-09-13T22:29:20.974Z,6.30
2022-09-13T22:31:50.468Z,5.73
2022-09-13T22:34:22.247Z,6.83
2022-09-13T22:36:49.374Z,6.77
2022-09-13T22:39:17.433Z,10.03
2022-09-13T22:41:44.912Z,9.83
2022-09-13T22:44:12.442Z,9.17
2022-09-13T22:46:43.081Z,10.20
2022-09-13T22:49:17.988Z,8.70
2022-09-13T22:51:46.439Z,7.70
2022-09-13T22:54:15.632Z,7.67
2022-09-13T22:56:42.882Z,8.30
2022-09-13T22:59:21.246Z,7.50
2022-09-13T23:01:49.119Z,7.77
2022-09-13T23:04:16.435Z,8.13
2022-09-13T23:06:46.550Z,7.97
2022-09-13T23:09:18.072Z,8.47
2022-09-13T23:11:45.691Z,9.07
2022-09-13T23:14:15.722Z,8.83
2022-09-13T23:16:46.614Z,8.60
2022-09-13T23:19:14.981Z,8.87
2022-09-13T23:21:42.910Z,8.73
2022-09-13T23:24:18.268Z,12.68
2022-09-13T23:26:46.467Z,9.67
2022-09-13T23:29:20.316Z,10.40
2022-09-13T23:31:48.011Z,10.53
2022-09-13T23:34:15.517Z,10.67
2022-09-13T23:36:44.423Z,10.23
2022-09-13T23:39:21.696Z,10.50
2022-09-13T23:41:50.901Z,10.63
2022-09-13T23:44:17.849Z,12.20
2022-09-13T23:46:45.267Z,12.13
2022-09-13T23:49:12.101Z,10.67
2022-09-13T23:51:39.147Z,11.70
2022-09-13T23:54:06.405Z,11.70
2022-09-13T23:56:34.999Z,13.83
2022-09-13T23:59:04.129Z,17.23
